Time;durP1;ratioP1;P1;durP2;ratioP2;P2;SDS_P1;SDS_P2;PMS_P1;PMS_P2;Temp;Humidity;BMP_temperature;BMP_pressure;BME280_temperature;BME280_humidity;BME280_pressure;Samples;Min_cycle;Max_cycle;Signal;HPM_P1;HPM_P2
2021/11/08 00:00:59;;;;;;;16.83;14.73;;;8.10;99.90;;;;;;5054172;28;20206;-55
2021/11/08 00:03:29;;;;;;;19.40;15.03;;;8.00;99.90;;;;;;5053065;28;20219;-56
2021/11/08 00:05:55;;;;;;;16.30;13.40;;;7.90;99.90;;;;;;5054548;28;20673;-53
2021/11/08 00:08:21;;;;;;;16.47;14.40;;;8.00;99.90;;;;;;5053983;28;20179;-53
2021/11/08 00:10:47;;;;;;;15.70;13.87;;;8.10;99.90;;;;;;5054629;28;20287;-54
2021/11/08 00:13:14;;;;;;;16.07;14.47;;;8.30;99.90;;;;;;5054054;28;20175;-55
2021/11/08 00:16:09;;;;;;;13.50;12.20;;;8.50;99.90;;;;;;5054159;28;20730;-54
2021/11/08 00:21:07;;;;;;;14.43;13.03;;;8.60;99.90;;;;;;5054250;28;20209;-55
2021/11/08 00:23:33;;;;;;;15.37;13.77;;;8.60;99.90;;;;;;5053926;28;20198;-56
2021/11/08 00:25:59;;;;;;;17.60;13.93;;;8.60;99.90;;;;;;5053900;28;20210;-56
2021/11/08 00:28:25;;;;;;;15.43;13.60;;;8.50;99.90;;;;;;5053779;28;20175;-53
2021/11/08 00:30:53;;;;;;;14.90;13.30;;;8.30;99.90;;;;;;5053773;28;20227;-57
2021/11/08 00:33:21;;;;;;;14.97;13.47;;;8.20;99.90;;;;;;5054351;28;20244;-59
2021/11/08 00:35:54;;;;;;;16.67;14.87;;;8.30;99.90;;;;;;5053853;28;20177;-54
2021/11/08 00:38:21;;;;;;;14.30;12.90;;;8.40;99.90;;;;;;5054162;28;20201;-53
2021/11/08 00:40:48;;;;;;;14.83;13.33;;;8.30;99.90;;;;;;5053667;28;20567;-55
2021/11/08 00:43:15;;;;;;;15.13;13.53;;;8.30;99.90;;;;;;5054282;28;20259;-56
2021/11/08 00:45:41;;;;;;;14.50;13.00;;;8.30;99.90;;;;;;5053870;28;20183;-55
2021/11/08 00:48:08;;;;;;;16.63;14.07;;;8.20;99.90;;;;;;5053631;28;20309;-54
2021/11/08 00:50:34;;;;;;;15.70;14.00;;;8.20;99.90;;;;;;5053469;28;20227;-58
2021/11/08 00:53:00;;;;;;;16.50;14.73;;;8.20;99.90;;;;;;5053575;28;20230;-59
2021/11/08 00:55:27;;;;;;;16.30;14.60;;;8.20;99.90;;;;;;5053514;28;20215;-59
2021/11/08 00:57:56;;;;;;;15.23;13.63;;;8.00;99.90;;;;;;5053263;28;20167;-54
2021/11/08 01:00:26;;;;;;;15.80;13.47;;;7.80;99.90;;;;;;5054388;28;20230;-57
2021/11/08 01:02:52;;;;;;;15.40;13.80;;;7.80;99.90;;;;;;5053350;28;20206;-56
2021/11/08 01:05:18;;;;;;;16.40;14.70;;;7.70;99.90;;;;;;5053450;28;20179;-56
2021/11/08 01:07:45;;;;;;;16.40;14.67;;;7.70;99.90;;;;;;5052422;28;20183;-52
2021/11/08 01:10:13;;;;;;;16.27;13.90;;;7.70;99.90;;;;;;5053494;28;20210;-53
2021/11/08 01:12:38;;;;;;;15.00;13.40;;;7.80;99.90;;;;;;5053252;28;20175;-56
2021/11/08 01:15:05;;;;;;;15.17;13.63;;;7.90;99.90;;;;;;5053247;28;20233;-56
2021/11/08 01:17:31;;;;;;;15.37;13.77;;;7.90;99.90;;;;;;5052773;28;20669;-54
2021/11/08 01:19:57;;;;;;;15.53;13.70;;;7.80;99.90;;;;;;5053118;28;20167;-58
2021/11/08 01:22:23;;;;;;;15.40;13.73;;;7.80;99.90;;;;;;5052944;28;20171;-53
2021/11/08 01:24:55;;;;;;;15.60;14.00;;;7.70;99.90;;;;;;5053131;28;20178;-55
2021/11/08 01:27:32;;;;;;;15.13;13.60;;;7.60;99.90;;;;;;5052645;28;20666;-54
2021/11/08 01:29:58;;;;;;;14.97;13.37;;;7.70;99.90;;;;;;5052914;28;20198;-55
2021/11/08 01:32:24;;;;;;;15.80;14.20;;;7.70;99.90;;;;;;5052740;28;20647;-55
2021/11/08 01:34:49;;;;;;;15.17;13.57;;;7.80;99.90;;;;;;5052626;28;20198;-53
2021/11/08 01:37:18;;;;;;;15.00;13.43;;;7.70;99.90;;;;;;5052467;28;20168;-57
2021/11/08 01:39:44;;;;;;;15.10;13.50;;;7.70;99.90;;;;;;5052646;28;20174;-58
2021/11/08 01:42:11;;;;;;;16.00;14.33;;;7.70;99.90;;;;;;5052800;28;20202;-59
2021/11/08 01:44:38;;;;;;;15.50;13.80;;;7.80;99.90;;;;;;5052664;28;20565;-57
2021/11/08 01:47:04;;;;;;;13.97;12.57;;;7.80;99.90;;;;;;5052418;28;20190;-57
2021/11/08 01:49:30;;;;;;;15.27;13.63;;;7.80;99.90;;;;;;5052458;28;20599;-55
2021/11/08 01:51:57;;;;;;;12.80;11.43;;;7.90;99.90;;;;;;5052582;28;20691;-58
2021/11/08 01:54:24;;;;;;;16.17;12.53;;;8.00;99.90;;;;;;5052224;28;20214;-56
2021/11/08 01:56:51;;;;;;;12.73;11.43;;;8.00;99.90;;;;;;5052120;28;20170;-59
2021/11/08 01:59:17;;;;;;;14.43;12.93;;;8.10;99.90;;;;;;5052142;28;20194;-54
2021/11/08 02:01:42;;;;;;;15.67;14.07;;;8.10;99.90;;;;;;5052035;28;20203;-53
2021/11/08 02:04:08;;;;;;;15.23;13.63;;;8.20;99.90;;;;;;5052248;28;20258;-56
2021/11/08 02:06:33;;;;;;;13.93;12.53;;;8.10;99.90;;;;;;5051762;28;20171;-58
2021/11/08 02:08:59;;;;;;;14.43;12.93;;;8.00;99.90;;;;;;5052152;28;20171;-54
2021/11/08 02:11:25;;;;;;;13.17;11.87;;;7.90;99.90;;;;;;5051832;28;20206;-57
2021/11/08 02:13:53;;;;;;;13.50;12.10;;;7.90;99.90;;;;;;5051976;28;20273;-53
2021/11/08 02:16:20;;;;;;;13.50;11.17;;;7.90;99.90;;;;;;5051522;28;20450;-54
2021/11/08 02:18:46;;;;;;;14.70;12.37;;;8.00;99.90;;;;;;5051113;28;20267;-56
2021/11/08 02:21:12;;;;;;;13.77;12.33;;;7.90;99.90;;;;;;5051751;28;20642;-53
2021/11/08 02:23:41;;;;;;;14.27;12.80;;;7.90;99.90;;;;;;5051871;28;20201;-55
2021/11/08 02:26:13;;;;;;;14.43;12.93;;;7.90;99.90;;;;;;5051573;28;20175;-53
2021/11/08 02:28:39;;;;;;;14.10;12.53;;;7.70;99.90;;;;;;5051779;28;20171;-59
2021/11/08 02:31:06;;;;;;;13.77;12.37;;;7.50;99.90;;;;;;5051335;28;20210;-55
2021/11/08 02:33:32;;;;;;;14.40;12.90;;;7.50;99.90;;;;;;5051770;28;20182;-56
2021/11/08 02:35:59;;;;;;;13.83;12.43;;;7.50;99.90;;;;;;5051585;28;20175;-59
2021/11/08 02:38:27;;;;;;;15.17;13.57;;;7.50;99.90;;;;;;5051150;28;20171;-55
2021/11/08 02:40:55;;;;;;;14.40;12.90;;;7.50;99.90;;;;;;5051406;28;20252;-54
2021/11/08 02:43:21;;;;;;;16.07;13.73;;;7.50;99.90;;;;;;5051176;28;20175;-59
2021/11/08 02:45:52;;;;;;;14.53;13.03;;;7.50;99.90;;;;;;5051431;28;20741;-53
2021/11/08 02:48:17;;;;;;;16.07;13.60;;;7.60;99.90;;;;;;5051146;28;20175;-59
2021/11/08 02:50:43;;;;;;;15.10;12.60;;;7.80;99.90;;;;;;5051337;28;20679;-59
2021/11/08 02:53:14;;;;;;;14.37;12.97;;;8.00;99.90;;;;;;5051262;28;20175;-57
2021/11/08 02:55:41;;;;;;;14.87;13.17;;;8.20;99.90;;;;;;5051358;28;20183;-58
2021/11/08 02:58:07;;;;;;;14.20;12.70;;;8.30;99.90;;;;;;5050684;28;20183;-56
2021/11/08 03:00:33;;;;;;;13.73;12.23;;;8.30;99.90;;;;;;5051170;28;20218;-56
2021/11/08 03:02:59;;;;;;;15.30;12.73;;;8.20;99.90;;;;;;5051236;28;20740;-56
2021/11/08 03:05:31;;;;;;;14.20;12.70;;;8.10;99.90;;;;;;5051367;28;20186;-58
2021/11/08 03:07:58;;;;;;;14.23;12.70;;;8.10;99.90;;;;;;5050938;28;20179;-59
2021/11/08 03:10:26;;;;;;;13.73;12.33;;;8.20;99.90;;;;;;5050775;28;20198;-58
2021/11/08 03:12:54;;;;;;;13.03;11.63;;;8.30;99.90;;;;;;5051198;28;20179;-53
2021/11/08 03:18:01;;;;;;;14.93;12.80;;;8.60;99.90;;;;;;5050768;28;20179;-54
2021/11/08 03:20:26;;;;;;;13.60;12.20;;;8.50;99.90;;;;;;5050558;28;20190;-59
2021/11/08 03:22:53;;;;;;;14.30;12.83;;;8.30;99.90;;;;;;5050805;28;20171;-59
2021/11/08 03:27:58;;;;;;;14.73;13.17;;;7.90;99.90;;;;;;5050629;28;20245;-59
2021/11/08 03:30:27;;;;;;;14.00;12.53;;;7.70;99.90;;;;;;5049221;28;20290;-57
2021/11/08 03:32:54;;;;;;;16.33;13.23;;;7.60;99.90;;;;;;5051074;28;20237;-59
2021/11/08 03:35:25;;;;;;;13.63;12.23;;;7.70;99.90;;;;;;5050476;28;20211;-54
2021/11/08 03:37:52;;;;;;;14.30;12.80;;;7.70;99.90;;;;;;5050705;28;20167;-59
2021/11/08 03:40:21;;;;;;;14.77;13.27;;;7.80;99.90;;;;;;5050445;28;20191;-55
2021/11/08 03:42:48;;;;;;;13.60;12.20;;;7.90;99.90;;;;;;5050800;28;20167;-59
2021/11/08 03:45:15;;;;;;;16.17;13.37;;;8.10;99.90;;;;;;5050703;28;20178;-59
2021/11/08 03:47:41;;;;;;;12.90;11.60;;;8.20;99.90;;;;;;5050185;28;20182;-55
2021/11/08 03:50:09;;;;;;;12.83;11.53;;;8.30;99.90;;;;;;5050394;28;20175;-59
2021/11/08 03:52:37;;;;;;;13.47;12.03;;;8.40;99.90;;;;;;5050358;28;20179;-57
2021/11/08 03:55:10;;;;;;;12.83;11.53;;;8.60;99.90;;;;;;5050543;28;20234;-58
2021/11/08 03:57:36;;;;;;;12.57;10.87;;;8.50;99.90;;;;;;5050158;28;20175;-57
2021/11/08 04:00:10;;;;;;;12.10;10.80;;;8.40;99.90;;;;;;5049255;28;20178;-58
2021/11/08 04:02:36;;;;;;;12.47;11.17;;;8.20;99.90;;;;;;5050129;28;20748;-59
2021/11/08 04:05:04;;;;;;;13.50;11.60;;;8.00;99.90;;;;;;5050505;28;20187;-58
2021/11/08 04:07:29;;;;;;;15.30;12.07;;;7.70;99.90;;;;;;5050197;28;20187;-59
2021/11/08 04:09:55;;;;;;;13.07;11.37;;;7.10;99.90;;;;;;5050328;28;20529;-58
2021/11/08 04:12:22;;;;;;;15.20;12.03;;;6.90;99.90;;;;;;5050296;28;20262;-59
2021/11/08 04:14:49;;;;;;;13.23;11.83;;;7.10;99.90;;;;;;5050367;28;20207;-54
2021/11/08 04:17:15;;;;;;;13.23;11.67;;;7.20;99.90;;;;;;5049807;28;20246;-54
2021/11/08 04:19:42;;;;;;;12.73;11.43;;;7.40;99.90;;;;;;5050327;28;20168;-54
2021/11/08 04:22:08;;;;;;;13.77;11.90;;;7.50;99.90;;;;;;5050406;28;20278;-53
2021/11/08 04:24:35;;;;;;;12.83;11.37;;;7.80;99.90;;;;;;5050118;28;20267;-53
2021/11/08 04:27:02;;;;;;;15.77;14.17;;;7.90;99.90;;;;;;5050046;28;20178;-53
2021/11/08 04:29:28;;;;;;;14.87;12.93;;;8.00;99.90;;;;;;5050584;28;20183;-56
2021/11/08 04:31:54;;;;;;;15.07;12.00;;;8.10;99.90;;;;;;5050140;28;20193;-52
2021/11/08 04:34:24;;;;;;;13.83;12.43;;;8.00;99.90;;;;;;5050056;28;20277;-53
2021/11/08 04:42:32;;;;;;;12.73;11.43;;;8.30;99.90;;;;;;5052631;28;20189;-55
2021/11/08 04:51:02;;;;;;;12.93;10.80;;;8.00;99.90;;;;;;5053837;28;20195;-58
2021/11/08 05:22:59;;;;;;;9.50;8.40;;;8.10;99.90;;;;;;5052193;28;20629;-54
2021/11/08 05:30:38;;;;;;;11.13;8.70;;;8.30;99.90;;;;;;5052930;28;20214;-55
2021/11/08 05:33:04;;;;;;;11.10;8.57;;;8.30;99.90;;;;;;5052673;28;20175;-53
2021/11/08 05:35:30;;;;;;;11.27;9.43;;;8.40;99.90;;;;;;5051717;28;20230;-53
2021/11/08 05:37:56;;;;;;;10.27;8.37;;;8.30;99.90;;;;;;5051956;28;20233;-56
2021/11/08 05:40:30;;;;;;;11.53;9.33;;;8.20;99.90;;;;;;5052619;28;20218;-59
2021/11/08 05:42:56;;;;;;;13.83;9.50;;;8.10;99.90;;;;;;5052516;28;20174;-54
2021/11/08 05:45:22;;;;;;;11.57;9.37;;;8.00;99.90;;;;;;5052854;28;20556;-54
2021/11/08 05:47:48;;;;;;;13.20;9.30;;;8.00;99.90;;;;;;5052269;28;20175;-54
2021/11/08 05:50:17;;;;;;;11.33;8.73;;;7.90;99.90;;;;;;5052339;28;20195;-54
2021/11/08 05:52:46;;;;;;;10.30;9.20;;;7.80;99.90;;;;;;5052316;28;20255;-57
2021/11/08 05:55:12;;;;;;;9.13;8.03;;;7.80;99.90;;;;;;5051970;28;20195;-54
2021/11/08 05:57:44;;;;;;;10.43;8.80;;;7.80;99.90;;;;;;5050665;28;20170;-55
2021/11/08 06:01:07;;;;;;;9.93;8.97;;;8.00;99.90;;;;;;5051438;28;20199;-59
2021/11/08 06:49:50;;;;;;;14.63;10.23;;;7.40;99.90;;;;;;5049857;28;20174;-57
2021/11/08 06:52:17;;;;;;;11.40;10.13;;;7.20;99.90;;;;;;5049829;28;20240;-57
2021/11/08 06:54:45;;;;;;;11.97;10.53;;;7.30;99.90;;;;;;5049959;28;20206;-58
2021/11/08 06:57:13;;;;;;;11.23;9.70;;;7.60;99.90;;;;;;5049885;28;20387;-56
2021/11/08 06:59:40;;;;;;;12.97;11.13;;;7.90;99.90;;;;;;5049703;28;20179;-56
2021/11/08 07:02:06;;;;;;;12.30;10.63;;;8.00;99.90;;;;;;5065184;22;20241;-59
2021/11/08 07:04:32;;;;;;;14.43;11.30;;;7.90;99.90;;;;;;5049861;28;20175;-60
2021/11/08 07:06:58;;;;;;;14.17;12.50;;;7.70;99.90;;;;;;5050425;28;20186;-56
2021/11/08 07:09:23;;;;;;;12.90;11.53;;;7.60;99.90;;;;;;5050931;28;20187;-57
2021/11/08 07:11:50;;;;;;;15.30;11.83;;;7.70;99.90;;;;;;5050984;28;20257;-61
2021/11/08 07:14:15;;;;;;;13.07;11.67;;;7.90;99.90;;;;;;5050626;28;20203;-58
2021/11/08 07:16:44;;;;;;;12.47;11.17;;;8.00;99.90;;;;;;5049749;28;20197;-57
2021/11/08 07:19:11;;;;;;;13.47;11.47;;;7.90;99.90;;;;;;5051033;28;20536;-59
2021/11/08 07:21:36;;;;;;;14.13;12.20;;;7.80;99.90;;;;;;5050341;28;20191;-59
2021/11/08 07:24:02;;;;;;;14.30;11.67;;;7.80;99.90;;;;;;5050498;28;20182;-60
2021/11/08 07:26:28;;;;;;;13.50;12.10;;;7.70;99.90;;;;;;5048319;28;20190;-58
2021/11/08 07:28:53;;;;;;;13.07;11.57;;;7.60;99.90;;;;;;5050070;28;20182;-60
2021/11/08 07:31:19;;;;;;;12.57;11.23;;;7.60;99.90;;;;;;5050094;28;20710;-61
2021/11/08 07:33:44;;;;;;;14.37;12.73;;;7.70;99.90;;;;;;5050102;28;20202;-59
2021/11/08 07:36:10;;;;;;;14.33;12.23;;;7.80;99.90;;;;;;5049563;28;20775;-56
2021/11/08 07:38:37;;;;;;;13.90;12.33;;;7.90;99.90;;;;;;5050364;28;20193;-58
2021/11/08 07:41:04;;;;;;;13.13;11.73;;;7.80;99.90;;;;;;5050107;28;20194;-60
2021/11/08 07:43:30;;;;;;;16.73;13.20;;;7.90;99.90;;;;;;5049457;28;20171;-60
2021/11/08 07:45:57;;;;;;;13.63;11.90;;;7.80;99.90;;;;;;5050217;28;20553;-59
2021/11/08 07:48:22;;;;;;;15.40;12.87;;;7.70;99.90;;;;;;5049204;28;20183;-60
2021/11/08 07:50:48;;;;;;;15.93;13.03;;;7.60;99.90;;;;;;5049469;28;20211;-59
2021/11/08 07:53:15;;;;;;;14.57;12.53;;;8.10;99.90;;;;;;5048941;28;20214;-58
2021/11/08 07:55:40;;;;;;;13.17;11.43;;;7.70;99.90;;;;;;5049996;28;20254;-58
2021/11/08 07:58:06;;;;;;;14.93;11.70;;;7.70;99.90;;;;;;5049120;28;20199;-62
2021/11/08 08:00:39;;;;;;;14.83;10.83;;;7.70;99.90;;;;;;5049891;28;20182;-58
2021/11/08 08:03:06;;;;;;;15.03;10.57;;;7.60;99.90;;;;;;5049987;28;20254;-57
2021/11/08 08:05:33;;;;;;;14.93;9.90;;;7.60;99.90;;;;;;5048353;28;20175;-59
2021/11/08 08:07:59;;;;;;;13.47;10.30;;;7.60;99.90;;;;;;5049313;28;20237;-60
2021/11/08 08:10:25;;;;;;;14.20;10.00;;;7.60;99.90;;;;;;5049468;28;20395;-59
2021/11/08 08:12:51;;;;;;;10.30;9.17;;;7.60;99.90;;;;;;5050085;28;20189;-59
2021/11/08 08:15:17;;;;;;;12.83;10.13;;;7.60;99.90;;;;;;5044006;28;20211;-58
2021/11/08 08:17:43;;;;;;;12.30;8.77;;;7.50;99.90;;;;;;5044932;28;20179;-59
2021/11/08 08:20:21;;;;;;;14.10;11.10;;;7.40;99.90;;;;;;5044460;28;20205;-52
2021/11/08 08:22:46;;;;;;;11.07;9.23;;;7.40;99.90;;;;;;5041786;28;20182;-54
2021/11/08 08:25:13;;;;;;;13.33;9.83;;;7.40;99.90;;;;;;5039141;28;20270;-56
2021/11/08 08:27:38;;;;;;;11.57;9.03;;;7.20;99.90;;;;;;5041628;28;20171;-57
2021/11/08 08:30:05;;;;;;;9.97;8.50;;;7.20;99.90;;;;;;5059241;28;20182;-52
2021/11/08 08:32:33;;;;;;;11.43;8.13;;;7.70;99.90;;;;;;5041800;28;20699;-55
2021/11/08 08:34:59;;;;;;;9.70;7.77;;;8.50;99.90;;;;;;5043826;28;20203;-57
2021/11/08 08:37:25;;;;;;;8.67;6.97;;;9.70;99.90;;;;;;5043557;28;20171;-56
2021/11/08 08:39:51;;;;;;;8.43;7.10;;;10.30;99.90;;;;;;5043303;28;21286;-54
2021/11/08 08:42:18;;;;;;;9.73;7.70;;;10.70;99.90;;;;;;5043101;28;20206;-55
2021/11/08 08:44:44;;;;;;;8.47;7.67;;;10.40;99.90;;;;;;5044911;28;20179;-54
2021/11/08 08:47:10;;;;;;;11.53;7.90;;;9.70;99.90;;;;;;5042846;28;20286;-59
2021/11/08 08:49:36;;;;;;;9.70;7.33;;;9.60;99.90;;;;;;5043341;28;20199;-59
2021/11/08 08:52:01;;;;;;;12.03;8.07;;;9.50;99.90;;;;;;5044291;28;20191;-56
2021/11/08 08:54:27;;;;;;;10.80;8.37;;;9.60;99.90;;;;;;5042557;28;20195;-58
2021/11/08 08:56:52;;;;;;;10.27;8.60;;;9.60;99.90;;;;;;5044488;28;20171;-60
2021/11/08 08:59:20;;;;;;;10.13;7.83;;;9.80;99.90;;;;;;5043825;28;20263;-58
2021/11/08 09:01:46;;;;;;;10.00;8.03;;;9.30;99.90;;;;;;5041024;28;20211;-57
2021/11/08 09:04:11;;;;;;;10.00;7.30;;;9.20;99.90;;;;;;5042944;28;20171;-57
2021/11/08 09:06:38;;;;;;;13.43;8.40;;;9.10;99.90;;;;;;5041758;28;20655;-61
2021/11/08 09:09:04;;;;;;;11.23;7.87;;;9.00;99.90;;;;;;5041159;28;20521;-60
2021/11/08 09:11:30;;;;;;;10.83;7.83;;;8.90;99.90;;;;;;5042776;28;20198;-59
2021/11/08 09:14:00;;;;;;;9.47;7.00;;;8.70;99.90;;;;;;5041982;28;20191;-55
2021/11/08 09:16:28;;;;;;;9.90;6.70;;;8.60;99.90;;;;;;5040952;28;20172;-59
2021/11/08 09:18:54;;;;;;;11.77;8.20;;;8.70;99.90;;;;;;5042869;28;20176;-59
2021/11/08 09:21:21;;;;;;;11.03;7.40;;;8.70;99.90;;;;;;5043032;28;20195;-56
2021/11/08 09:23:49;;;;;;;9.43;7.43;;;8.50;99.90;;;;;;5041339;28;20208;-61
2021/11/08 09:26:16;;;;;;;9.60;7.03;;;8.40;99.90;;;;;;5042329;28;20581;-60
2021/11/08 09:28:42;;;;;;;9.03;7.07;;;8.30;99.90;;;;;;5042555;28;20250;-55
2021/11/08 09:31:08;;;;;;;10.23;7.63;;;8.30;99.90;;;;;;5052832;28;20188;-57
2021/11/08 09:33:33;;;;;;;8.37;7.20;;;8.40;99.90;;;;;;5049032;28;20178;-57
2021/11/08 09:36:05;;;;;;;9.43;6.70;;;8.60;99.90;;;;;;5049544;28;20178;-60
2021/11/08 09:38:31;;;;;;;8.10;6.40;;;8.80;99.90;;;;;;5052402;28;20547;-60
2021/11/08 09:40:56;;;;;;;11.67;6.30;;;9.20;99.90;;;;;;5052043;28;20194;-61
2021/11/08 09:43:24;;;;;;;9.40;6.10;;;9.50;99.90;;;;;;5052500;28;20689;-58
2021/11/08 09:45:51;;;;;;;7.73;5.30;;;9.70;99.90;;;;;;5051758;28;20186;-59
2021/11/08 09:48:18;;;;;;;7.53;5.40;;;9.80;99.90;;;;;;5052113;28;20712;-60
2021/11/08 09:50:46;;;;;;;8.10;5.20;;;10.00;99.90;;;;;;5051762;28;20295;-59
2021/11/08 09:53:13;;;;;;;8.77;5.20;;;10.30;99.90;;;;;;5051964;28;20670;-60
2021/11/08 09:55:41;;;;;;;9.83;5.00;;;10.00;99.90;;;;;;5051682;28;20262;-60
2021/11/08 09:58:07;;;;;;;7.20;5.20;;;9.70;99.90;;;;;;5051693;28;20254;-62
2021/11/08 10:00:36;;;;;;;7.17;4.43;;;9.80;99.90;;;;;;5051955;28;20238;-59
2021/11/08 10:03:11;;;;;;;9.47;4.70;;;10.10;99.90;;;;;;5052039;28;20181;-61
2021/11/08 10:05:41;;;;;;;6.63;4.17;;;10.70;99.90;;;;;;5051396;28;20535;-60
2021/11/08 10:08:07;;;;;;;7.23;3.93;;;11.30;99.90;;;;;;5051890;28;20181;-61
2021/11/08 10:10:32;;;;;;;7.60;3.77;;;12.20;99.90;;;;;;5050300;28;20258;-60
2021/11/08 10:13:12;;;;;;;8.47;4.20;;;12.40;99.90;;;;;;5051863;28;20199;-61
2021/11/08 10:15:41;;;;;;;7.10;4.03;;;11.90;99.90;;;;;;5050770;28;20198;-61
2021/11/08 10:18:07;;;;;;;7.90;3.80;;;11.10;99.90;;;;;;5051749;28;20205;-62
2021/11/08 10:20:39;;;;;;;8.57;4.37;;;10.80;99.90;;;;;;5051692;28;20195;-59
2021/11/08 10:23:06;;;;;;;6.80;3.60;;;11.00;99.90;;;;;;5051535;28;20163;-59
2021/11/08 10:25:34;;;;;;;5.73;3.70;;;11.40;99.90;;;;;;5051390;28;20258;-62
2021/11/08 10:28:08;;;;;;;7.00;3.67;;;11.80;99.90;;;;;;5050786;28;20547;-59
2021/11/08 10:30:35;;;;;;;7.63;3.90;;;12.40;99.90;;;;;;5051435;28;20169;-60
2021/11/08 10:33:07;;;;;;;6.77;3.40;;;13.00;99.90;;;;;;5051035;28;20545;-60
2021/11/08 10:35:42;;;;;;;6.60;3.33;;;13.60;99.90;;;;;;5051311;28;20206;-59
2021/11/08 10:38:13;;;;;;;5.37;3.40;;;13.80;99.90;;;;;;5050759;28;20175;-62
2021/11/08 10:40:45;;;;;;;6.57;3.63;;;13.70;99.90;;;;;;5050366;28;20626;-61
2021/11/08 10:43:12;;;;;;;8.60;3.80;;;14.50;99.90;;;;;;5051321;28;20678;-58
2021/11/08 10:45:50;;;;;;;5.97;3.37;;;12.90;99.90;;;;;;5050877;28;20190;-62
2021/11/08 10:48:20;;;;;;;6.23;3.67;;;12.40;99.90;;;;;;5050716;28;20167;-61
2021/11/08 10:50:48;;;;;;;6.67;3.33;;;12.30;99.90;;;;;;5051047;28;20781;-62
2021/11/08 10:53:13;;;;;;;6.17;3.20;;;12.40;99.90;;;;;;5051381;28;20192;-62
2021/11/08 10:55:39;;;;;;;5.87;3.70;;;12.80;99.90;;;;;;5051202;28;20296;-61
2021/11/08 10:58:11;;;;;;;8.90;4.17;;;12.80;99.90;;;;;;5050478;28;20213;-62
2021/11/08 11:01:03;;;;;;;6.13;3.80;;;12.60;99.90;;;;;;5051195;28;20181;-60
2021/11/08 11:03:29;;;;;;;8.17;3.60;;;13.40;99.90;;;;;;5046196;28;20581;-60
2021/11/08 11:06:02;;;;;;;6.13;3.50;;;14.30;99.90;;;;;;5050368;28;20183;-62
2021/11/08 11:08:29;;;;;;;6.70;3.40;;;15.50;99.90;;;;;;5047857;28;20259;-62
2021/11/08 11:11:02;;;;;;;4.73;2.90;;;16.70;99.90;;;;;;5047224;28;20287;-60
2021/11/08 11:13:29;;;;;;;5.15;2.88;;;18.50;99.90;;;;;;5050444;28;20197;-63
2021/11/08 11:16:01;;;;;;;5.57;2.70;;;20.30;97.20;;;;;;5048891;28;20210;-63
2021/11/08 11:18:30;;;;;;;5.25;3.00;;;20.70;95.10;;;;;;5049694;28;20199;-62
2021/11/08 11:20:56;;;;;;;4.80;2.80;;;22.30;93.30;;;;;;5050477;28;20266;-63
2021/11/08 11:23:28;;;;;;;4.57;2.80;;;23.10;91.50;;;;;;5050811;28;20265;-63
2021/11/08 11:26:03;;;;;;;4.70;2.55;;;23.20;91.20;;;;;;5050265;28;20198;-64
2021/11/08 11:28:40;;;;;;;3.80;2.30;;;24.10;90.50;;;;;;5050253;28;20224;-63
2021/11/08 11:31:21;;;;;;;6.65;3.22;;;25.50;87.80;;;;;;5050636;28;20260;-61
2021/11/08 11:33:49;;;;;;;4.72;2.35;;;27.20;79.50;;;;;;5050655;28;20263;-62
2021/11/08 11:36:17;;;;;;;4.15;2.45;;;27.90;77.20;;;;;;5050396;28;20175;-64
2021/11/08 11:38:52;;;;;;;4.93;2.65;;;28.30;73.10;;;;;;5049975;28;20258;-62
2021/11/08 11:41:18;;;;;;;6.53;2.95;;;28.50;73.60;;;;;;5050657;28;20187;-62
2021/11/08 11:43:50;;;;;;;6.30;2.83;;;29.50;68.10;;;;;;5050198;28;20221;-62
2021/11/08 11:46:22;;;;;;;5.45;2.90;;;29.10;65.70;;;;;;5050348;28;20194;-64
2021/11/08 11:48:49;;;;;;;4.20;2.45;;;28.90;66.40;;;;;;5049809;28;20177;-63
2021/11/08 11:51:27;;;;;;;4.75;2.15;;;28.90;65.30;;;;;;5053237;28;20663;-62
2021/11/08 11:53:55;;;;;;;3.85;2.60;;;28.50;64.00;;;;;;5054527;28;20171;-62
2021/11/08 11:56:22;;;;;;;4.40;2.20;;;27.70;63.90;;;;;;5054319;28;20206;-63
2021/11/08 11:58:48;;;;;;;5.93;2.47;;;27.20;63.70;;;;;;5054220;28;20167;-63
2021/11/08 12:01:20;;;;;;;3.63;2.13;;;25.40;66.40;;;;;;5054034;28;20752;-62
2021/11/08 12:03:47;;;;;;;4.32;2.17;;;24.60;70.10;;;;;;5054235;28;20183;-62
2021/11/08 12:06:21;;;;;;;3.20;2.10;;;24.60;69.60;;;;;;5053410;28;20176;-63
2021/11/08 12:08:47;;;;;;;3.85;2.10;;;24.60;69.10;;;;;;5054680;28;20670;-63
2021/11/08 12:11:14;;;;;;;4.97;2.42;;;25.60;68.60;;;;;;5060240;28;20285;-63
2021/11/08 12:13:52;;;;;;;5.05;2.30;;;24.40;68.50;;;;;;5062980;28;20171;-62
2021/11/08 12:16:20;;;;;;;5.15;2.15;;;22.70;72.50;;;;;;5069171;28;20178;-63
2021/11/08 12:18:47;;;;;;;5.55;2.10;;;21.10;70.30;;;;;;5056957;28;20171;-61
2021/11/08 12:21:24;;;;;;;5.13;2.10;;;19.90;74.30;;;;;;5066997;28;20202;-62
2021/11/08 12:23:51;;;;;;;5.63;2.00;;;18.70;74.10;;;;;;5065560;28;20538;-63
2021/11/08 12:26:24;;;;;;;3.73;1.90;;;18.00;77.30;;;;;;5058147;28;20175;-62
2021/11/08 12:28:50;;;;;;;2.67;1.67;;;17.60;77.80;;;;;;5040622;28;20247;-62
2021/11/08 12:31:21;;;;;;;3.43;1.57;;;17.50;80.20;;;;;;5066444;28;20195;-61
2021/11/08 12:34:01;;;;;;;3.63;1.50;;;17.30;80.10;;;;;;5059995;28;20175;-62
2021/11/08 12:36:27;;;;;;;4.60;1.80;;;17.10;78.10;;;;;;5070131;28;20254;-63
2021/11/08 12:39:24;;;;;;;6.10;2.40;;;16.40;79.50;;;;;;5056118;28;20177;-63
2021/11/08 12:41:53;;;;;;;4.57;1.90;;;15.70;80.70;;;;;;5031718;28;20541;-62
2021/11/08 12:44:31;;;;;;;4.20;2.07;;;15.30;83.10;;;;;;5033808;28;20192;-60
2021/11/08 12:46:59;;;;;;;4.83;2.00;;;14.80;84.80;;;;;;5033746;28;20700;-63
2021/11/08 12:49:27;;;;;;;3.73;1.77;;;14.50;87.90;;;;;;5044841;28;20195;-62
2021/11/08 12:52:38;;;;;;;3.80;1.90;;;14.10;86.90;;;;;;5055542;28;20210;-63
2021/11/08 12:55:06;;;;;;;3.27;1.80;;;13.90;89.00;;;;;;5060432;28;20183;-62
2021/11/08 12:57:33;;;;;;;9.27;7.27;;;13.60;88.10;;;;;;5069113;28;20177;-62
2021/11/08 13:00:18;;;;;;;5.63;2.30;;;13.50;91.70;;;;;;5040270;28;20177;-62
2021/11/08 13:02:57;;;;;;;4.60;3.13;;;13.50;90.80;;;;;;5062135;28;20283;-62
2021/11/08 13:05:29;;;;;;;4.57;2.00;;;13.50;91.40;;;;;;5068236;28;20209;-63
2021/11/08 13:07:57;;;;;;;5.63;1.93;;;14.00;91.90;;;;;;5056014;28;20178;-63
2021/11/08 13:10:27;;;;;;;2.70;1.33;;;14.50;89.00;;;;;;5066128;28;20183;-63
2021/11/08 13:12:54;;;;;;;3.50;1.50;;;14.50;90.00;;;;;;5064217;28;20184;-62
2021/11/08 13:15:23;;;;;;;2.80;1.53;;;14.40;88.80;;;;;;5057983;28;20747;-60
2021/11/08 13:17:58;;;;;;;4.00;1.50;;;14.60;87.40;;;;;;5069329;28;20265;-61
2021/11/08 13:20:30;;;;;;;2.50;1.50;;;14.70;86.90;;;;;;5059573;28;20182;-58
2021/11/08 13:23:02;;;;;;;3.33;1.70;;;14.80;90.60;;;;;;5061471;28;20186;-61
2021/11/08 13:25:34;;;;;;;2.33;1.30;;;15.10;88.80;;;;;;5068710;28;20340;-62
2021/11/08 13:28:04;;;;;;;3.83;1.77;;;15.20;85.20;;;;;;5040319;28;20196;-61
2021/11/08 13:30:51;;;;;;;2.90;1.43;;;15.40;88.00;;;;;;5064716;28;20178;-62
2021/11/08 13:33:24;;;;;;;4.70;2.90;;;15.90;84.20;;;;;;5066716;28;20182;-62
2021/11/08 13:35:50;;;;;;;4.28;1.88;;;16.60;85.00;;;;;;5055713;28;20184;-63
2021/11/08 13:38:25;;;;;;;5.75;3.88;;;17.40;82.30;;;;;;5066585;28;20185;-63
2021/11/08 13:40:54;;;;;;;3.08;1.80;;;18.20;83.20;;;;;;5063272;28;20198;-63
2021/11/08 13:43:27;;;;;;;3.60;2.03;;;19.10;81.00;;;;;;5061413;28;20205;-62
2021/11/08 13:45:59;;;;;;;4.35;1.42;;;20.10;81.60;;;;;;5065124;28;20206;-62
2021/11/08 13:48:32;;;;;;;2.45;1.73;;;20.80;77.30;;;;;;5063523;28;20554;-62
2021/11/08 13:51:07;;;;;;;3.53;1.52;;;21.50;75.10;;;;;;5056070;28;20266;-60
2021/11/08 13:53:35;;;;;;;3.35;1.85;;;21.90;71.50;;;;;;5040973;28;20177;-62
2021/11/08 13:56:10;;;;;;;4.13;1.63;;;22.00;71.20;;;;;;5064073;28;20183;-59
2021/11/08 13:58:45;;;;;;;2.80;1.67;;;22.00;70.50;;;;;;5065008;28;20192;-64
2021/11/08 14:01:11;;;;;;;3.15;1.95;;;21.50;70.70;;;;;;5059031;22;20265;-49
2021/11/08 14:03:44;;;;;;;2.13;1.48;;;21.20;71.20;;;;;;5031024;28;20175;-49
2021/11/08 14:06:12;;;;;;;4.00;2.10;;;21.10;71.10;;;;;;5031344;28;20188;-52
2021/11/08 14:08:45;;;;;;;2.95;1.55;;;21.00;69.70;;;;;;5029478;28;20171;-57
2021/11/08 14:11:11;;;;;;;2.65;1.52;;;20.90;70.10;;;;;;5031907;28;20204;-55
2021/11/08 14:13:38;;;;;;;13.02;6.07;;;20.90;70.80;;;;;;5030991;28;20171;-50
2021/11/08 14:16:13;;;;;;;3.65;1.95;;;20.90;70.70;;;;;;5013566;28;20208;-52
2021/11/08 14:18:39;;;;;;;2.42;1.48;;;20.90;69.80;;;;;;5016121;28;20163;-53
2021/11/08 14:21:14;;;;;;;4.40;1.90;;;21.10;69.00;;;;;;5031629;28;20279;-50
2021/11/08 14:23:43;;;;;;;4.85;1.95;;;20.70;69.70;;;;;;5031406;28;20213;-50
2021/11/08 14:26:15;;;;;;;4.50;2.20;;;20.10;70.30;;;;;;5031313;28;20210;-51
2021/11/08 14:28:42;;;;;;;3.67;1.98;;;19.70;71.20;;;;;;5015716;28;20162;-51
2021/11/08 14:31:27;;;;;;;3.10;1.55;;;19.50;72.20;;;;;;5031589;28;20243;-55